Time;durP1;ratioP1;P1;durP2;ratioP2;P2;SDS_P1;SDS_P2;PMS_P1;PMS_P2;Temp;Humidity;BMP_temperature;BMP_pressure;BME280_temperature;BME280_humidity;BME280_pressure;Samples;Min_cycle;Max_cycle;Signal;HPM_P1;HPM_P2
2021/09/07 00:43:35;;;;;;;9.05;3.45;;;;;;;5.00;100.00;102305.45;1705798;83;21506;-94
2021/09/07 00:46:01;;;;;;;7.92;3.42;;;;;;;4.99;100.00;102305.63;1706161;84;21046;-94
2021/09/07 00:48:27;;;;;;;12.58;3.90;;;;;;;4.95;100.00;102305.16;1709758;83;20955;-90
2021/09/07 00:50:52;;;;;;;9.73;3.70;;;;;;;4.93;100.00;102311.69;1709727;83;20904;-91
2021/09/07 00:53:18;;;;;;;12.15;3.92;;;;;;;4.90;100.00;102307.53;1709806;83;21637;-91
2021/09/07 00:55:48;;;;;;;7.35;3.47;;;;;;;4.89;100.00;102309.88;1709776;83;21970;-91
2021/09/07 00:58:16;;;;;;;9.15;3.80;;;;;;;4.88;100.00;102308.72;1709509;83;21622;-91
2021/09/07 01:00:44;;;;;;;7.75;2.80;;;;;;;4.85;100.00;102303.73;1689476;84;21549;-92
2021/09/07 01:03:09;;;;;;;8.68;3.47;;;;;;;4.81;100.00;102309.95;1709763;83;21549;-89
2021/09/07 01:05:36;;;;;;;8.48;3.58;;;;;;;4.75;100.00;102312.00;1709830;84;20888;-91
2021/09/07 01:08:02;;;;;;;10.48;3.33;;;;;;;4.70;100.00;102313.85;1709803;83;21142;-91
2021/09/07 01:10:28;;;;;;;11.10;3.72;;;;;;;4.64;100.00;102319.08;1709707;83;21554;-91
2021/09/07 01:12:55;;;;;;;9.23;3.47;;;;;;;4.60;100.00;102316.45;1709752;83;20908;-91
2021/09/07 01:15:22;;;;;;;7.40;3.10;;;;;;;4.57;100.00;102319.48;1709473;83;20991;-92
2021/09/07 01:17:47;;;;;;;6.90;3.30;;;;;;;4.55;100.00;102319.13;1709648;83;20923;-90
2021/09/07 01:20:14;;;;;;;7.72;3.90;;;;;;;4.55;100.00;102320.98;1709745;83;21696;-92
2021/09/07 01:22:40;;;;;;;9.93;3.15;;;;;;;4.54;100.00;102320.66;1709667;83;21589;-91
2021/09/07 01:25:07;;;;;;;9.33;3.30;;;;;;;4.50;100.00;102322.00;1709599;84;21055;-91
2021/09/07 01:27:32;;;;;;;11.43;3.55;;;;;;;4.47;100.00;102318.35;1709810;83;21496;-89
2021/09/07 01:29:58;;;;;;;8.08;3.70;;;;;;;4.43;100.00;102313.88;1709802;83;20896;-90
2021/09/07 01:32:24;;;;;;;8.05;2.90;;;;;;;4.40;100.00;102318.74;1709587;83;21106;-90
2021/09/07 01:34:51;;;;;;;8.50;3.85;;;;;;;4.38;100.00;102317.57;1709820;83;20892;-91
2021/09/07 01:37:16;;;;;;;7.30;2.98;;;;;;;4.37;100.00;102318.59;1709789;83;21039;-90
2021/09/07 01:39:43;;;;;;;8.30;3.52;;;;;;;4.29;100.00;102319.48;1709693;83;21021;-90
2021/09/07 01:42:10;;;;;;;7.08;3.22;;;;;;;4.29;100.00;102319.48;1709885;83;21007;-90
2021/09/07 01:44:42;;;;;;;8.53;3.45;;;;;;;4.25;100.00;102315.99;1704583;83;22131;-90
2021/09/07 01:47:09;;;;;;;8.45;3.42;;;;;;;4.22;100.00;102324.34;1705061;83;21516;-91
2021/09/07 01:49:37;;;;;;;7.58;3.10;;;;;;;4.22;100.00;102326.52;1704386;84;21083;-90
2021/09/07 01:52:14;;;;;;;8.93;3.60;;;;;;;4.23;100.00;102325.49;1704879;83;20992;-90
2021/09/07 01:54:43;;;;;;;8.50;3.47;;;;;;;4.22;100.00;102328.35;1619849;88;21021;-90
2021/09/07 01:57:11;;;;;;;7.37;3.35;;;;;;;4.22;100.00;102327.02;1586156;88;21361;-90
2021/09/07 01:59:37;;;;;;;8.63;3.60;;;;;;;4.17;100.00;102330.70;1585841;90;21565;-90
2021/09/07 02:02:04;;;;;;;7.50;3.42;;;;;;;4.16;100.00;102331.72;1586041;90;21062;-90
2021/09/07 02:04:29;;;;;;;8.08;3.42;;;;;;;4.15;100.00;102328.23;1586111;89;21194;-90
2021/09/07 02:06:55;;;;;;;8.73;3.22;;;;;;;4.15;100.00;102332.23;1586014;90;20903;-90
2021/09/07 02:09:22;;;;;;;7.55;3.52;;;;;;;4.11;100.00;102330.89;1586019;90;21109;-90
2021/09/07 02:11:48;;;;;;;8.25;3.00;;;;;;;4.10;100.00;102331.91;1585666;89;21022;-91
2021/09/07 02:14:14;;;;;;;9.18;3.50;;;;;;;4.09;100.00;102336.92;1565376;90;21151;-90
2021/09/07 02:16:40;;;;;;;8.80;3.30;;;;;;;4.09;100.00;102333.75;1585982;90;21568;-91
2021/09/07 02:19:06;;;;;;;11.20;3.35;;;;;;;4.06;100.00;102336.77;1586064;90;21077;-90
2021/09/07 02:21:41;;;;;;;8.55;3.47;;;;;;;4.03;100.00;102338.45;1586039;90;21182;-90
2021/09/07 02:24:07;;;;;;;10.93;4.42;;;;;;;4.02;100.00;102339.94;1585725;90;21645;-91
2021/09/07 02:26:33;;;;;;;7.90;3.58;;;;;;;3.97;100.00;102343.14;1585913;90;20914;-90
2021/09/07 02:28:58;;;;;;;9.63;3.30;;;;;;;3.92;100.00;102344.16;1585961;90;20911;-91
2021/09/07 02:31:24;;;;;;;7.80;3.47;;;;;;;3.95;100.00;102346.48;1586075;90;20923;-90
2021/09/07 02:33:50;;;;;;;13.28;3.58;;;;;;;3.98;100.00;102347.47;1586052;90;21807;-91
2021/09/07 02:36:24;;;;;;;9.70;3.92;;;;;;;3.98;100.00;102347.47;1585952;90;20990;-90
2021/09/07 02:38:50;;;;;;;;;;;;;;;3.96;100.00;102346.80;1588157;90;21022;-90
2021/09/07 02:41:16;;;;;;;10.15;4.03;;;;;;;3.95;100.00;102349.66;1585910;90;20716;-90
2021/09/07 02:43:42;;;;;;;9.40;3.83;;;;;;;3.90;100.00;102355.48;1600430;87;21046;-90
2021/09/07 02:46:08;;;;;;;9.43;3.30;;;;;;;3.87;100.00;102355.84;1634241;87;21299;-91
2021/09/07 02:48:35;;;;;;;9.80;3.40;;;;;;;3.85;100.00;102357.36;1634247;87;20935;-91
2021/09/07 02:51:01;;;;;;;10.63;3.77;;;;;;;3.85;100.00;102364.02;1632621;87;21013;-90
2021/09/07 02:53:27;;;;;;;9.20;3.50;;;;;;;3.84;100.00;102362.34;1634839;86;20888;-89
2021/09/07 02:55:52;;;;;;;8.70;3.52;;;;;;;3.83;100.00;102364.69;1658212;86;21806;-90
2021/09/07 02:58:18;;;;;;;6.28;3.22;;;;;;;3.83;100.00;102370.53;1689205;84;21171;-90
2021/09/07 03:00:44;;;;;;;8.90;3.45;;;;;;;3.79;100.00;102378.01;1709367;83;20852;-90
2021/09/07 03:03:10;;;;;;;9.78;4.03;;;;;;;3.79;100.00;102382.52;1707582;83;20864;-91
2021/09/07 03:05:36;;;;;;;9.28;3.62;;;;;;;3.79;100.00;102387.84;1709149;83;21007;-90
2021/09/07 03:08:03;;;;;;;11.05;3.80;;;;;;;3.79;100.00;102381.19;1709612;83;21077;-89
2021/09/07 03:10:29;;;;;;;11.08;4.20;;;;;;;3.77;100.00;102381.38;1709333;83;21597;-90
2021/09/07 03:12:55;;;;;;;10.40;3.98;;;;;;;3.78;100.00;102383.02;1708522;83;20893;-90
2021/09/07 03:15:24;;;;;;;11.90;4.00;;;;;;;3.81;100.00;102380.02;1709491;83;21105;-90
2021/09/07 03:17:50;;;;;;;10.23;3.30;;;;;;;3.85;100.00;102388.50;1709648;83;21561;-90
2021/09/07 03:20:17;;;;;;;9.68;3.77;;;;;;;3.86;100.00;102394.19;1709617;83;20980;-90
2021/09/07 03:22:43;;;;;;;10.38;4.53;;;;;;;3.85;100.00;102392.02;1710084;82;21130;-89
2021/09/07 03:25:09;;;;;;;17.55;3.92;;;;;;;3.87;100.00;102394.00;1689244;84;21114;-90
2021/09/07 03:27:35;;;;;;;13.30;4.42;;;;;;;3.96;100.00;102390.80;1709445;83;21547;-90
2021/09/07 03:30:02;;;;;;;9.55;3.70;;;;;;;4.00;100.00;102397.95;1709585;83;20955;-90
2021/09/07 03:32:27;;;;;;;7.10;3.30;;;;;;;4.07;100.00;102402.95;1708204;83;20999;-90
2021/09/07 03:34:53;;;;;;;9.83;3.85;;;;;;;4.17;100.00;102398.73;1707031;83;21941;-90
2021/09/07 03:37:19;;;;;;;9.60;4.03;;;;;;;4.25;100.00;102405.39;1709234;84;20880;-89
2021/09/07 03:39:45;;;;;;;12.80;4.65;;;;;;;4.34;100.00;102407.02;1709387;83;20998;-89
2021/09/07 05:01:41;;;;;;;10.58;3.77;;;;;;;25.57;39.94;102415.05;1696926;83;21519;-92
2021/09/07 05:04:07;;;;;;;10.20;4.37;;;;;;;25.93;41.31;102411.89;1677668;84;21487;-94
2021/09/07 05:06:33;;;;;;;11.20;4.45;;;;;;;26.48;39.47;102417.70;1674124;85;20884;-93
2021/09/07 05:08:59;;;;;;;11.45;5.10;;;;;;;27.20;36.86;102397.44;1677564;85;21154;-90
2021/09/07 05:11:25;;;;;;;9.95;5.00;;;;;;;27.20;36.86;102397.44;1677586;85;21059;-92
2021/09/07 05:13:51;;;;;;;10.28;5.55;;;;;;;27.59;34.83;102425.44;1679454;85;20919;-91
2021/09/07 05:16:16;;;;;;;12.28;6.20;;;;;;;27.83;34.21;102427.64;1677748;85;20849;-91
2021/09/07 05:18:42;;;;;;;14.70;7.87;;;;;;;27.66;33.14;102431.03;1677569;85;21010;-90
2021/09/07 05:21:08;;;;;;;11.97;6.60;;;;;;;27.67;33.61;102430.69;1677683;85;21091;-89
2021/09/07 05:23:34;;;;;;;9.60;4.95;;;;;;;28.24;33.41;102428.89;1677504;85;20903;-91
2021/09/07 05:26:01;;;;;;;9.05;4.55;;;;;;;28.87;32.87;102428.91;1677531;85;21090;-89
2021/09/07 05:28:29;;;;;;;7.92;3.77;;;;;;;29.11;30.96;102431.00;1677720;85;21015;-88
2021/09/07 05:30:54;;;;;;;6.95;3.98;;;;;;;28.93;30.42;102428.94;1677334;85;20983;-89
2021/09/07 05:33:24;;;;;;;6.58;3.27;;;;;;;28.63;29.71;102433.78;1677736;85;21155;-87
2021/09/07 05:35:51;;;;;;;6.42;3.30;;;;;;;28.62;29.83;102436.33;1677619;85;21028;-88
2021/09/07 05:38:18;;;;;;;4.25;3.20;;;;;;;28.46;28.62;102430.55;1675460;85;21015;-88
2021/09/07 05:40:44;;;;;;;4.95;2.87;;;;;;;28.19;29.76;102436.01;1678031;85;21027;-89
2021/09/07 05:43:11;;;;;;;4.45;2.98;;;;;;;28.48;28.75;102435.20;1677628;85;21000;-89
2021/09/07 05:45:37;;;;;;;7.67;2.95;;;;;;;28.38;29.69;102447.22;1677658;85;21474;-90
2021/09/07 05:48:03;;;;;;;6.45;3.42;;;;;;;28.65;28.15;102444.52;1677371;85;20943;-90
2021/09/07 05:50:29;;;;;;;7.22;3.25;;;;;;;28.35;28.39;102452.05;1677391;85;21498;-90
2021/09/07 05:52:55;;;;;;;4.42;2.95;;;;;;;28.25;28.35;102449.91;1677400;85;21035;-89
2021/09/07 05:55:21;;;;;;;4.90;2.70;;;;;;;28.80;29.86;102448.67;1677779;85;20903;-89
2021/09/07 05:57:48;;;;;;;6.70;2.90;;;;;;;29.82;28.11;102443.77;1677654;85;21993;-91
2021/09/07 06:00:15;;;;;;;4.83;3.05;;;;;;;30.42;27.27;102450.27;1677270;85;21301;-89
2021/09/07 06:02:42;;;;;;;4.08;3.00;;;;;;;30.84;26.18;102449.34;1699134;83;20988;-88
2021/09/07 06:05:09;;;;;;;3.47;2.77;;;;;;;30.70;25.84;102447.52;1713558;83;21008;-88
2021/09/07 06:07:35;;;;;;;3.70;2.67;;;;;;;32.79;24.89;102448.22;1713559;83;21131;-89
2021/09/07 06:10:11;;;;;;;4.08;2.67;;;;;;;32.79;24.89;102448.22;1714477;83;21812;-90
2021/09/07 06:12:37;;;;;;;3.30;2.70;;;;;;;32.35;23.49;102449.25;1711791;83;20999;-87
2021/09/07 06:15:04;;;;;;;5.67;2.80;;;;;;;32.33;24.66;102451.63;1714487;83;20967;-89
2021/09/07 06:17:30;;;;;;;3.00;2.27;;;;;;;32.77;22.70;102458.38;1714097;83;20964;-91
2021/09/07 06:19:55;;;;;;;4.70;2.40;;;;;;;32.67;22.88;102460.34;1714212;83;21657;-90
2021/09/07 06:22:21;;;;;;;4.05;2.40;;;;;;;31.95;22.21;102454.31;1714141;83;21893;-91
2021/09/07 06:25:04;;;;;;;4.53;2.87;;;;;;;31.83;22.54;102455.20;1711917;83;20975;-92
2021/09/07 06:27:30;;;;;;;6.28;2.85;;;;;;;31.92;22.81;102461.42;1713543;83;20976;-90
2021/09/07 06:29:56;;;;;;;3.98;2.62;;;;;;;32.33;22.91;102464.77;1714193;83;20915;-87
2021/09/07 06:32:22;;;;;;;5.22;3.50;;;;;;;33.00;22.52;102460.44;1672102;83;20901;-89
2021/09/07 06:34:48;;;;;;;7.60;2.83;;;;;;;33.90;22.02;102465.06;1714187;83;21168;-88
2021/09/07 06:37:14;;;;;;;3.85;2.90;;;;;;;34.38;21.45;102459.80;1714037;83;20978;-88
2021/09/07 06:39:40;;;;;;;6.15;2.83;;;;;;;35.14;20.60;102465.78;1714458;82;20979;-90
2021/09/07 06:42:06;;;;;;;3.95;2.10;;;;;;;34.75;20.07;102461.91;1713054;83;20947;-87
2021/09/07 06:44:32;;;;;;;2.67;2.42;;;;;;;34.69;19.84;102460.64;1713934;83;21012;-89
2021/09/07 06:46:57;;;;;;;5.97;2.62;;;;;;;34.46;19.93;102468.31;1712784;83;21003;-85
2021/09/07 06:49:23;;;;;;;6.35;3.60;;;;;;;35.06;19.44;102472.48;1713631;82;21026;-90
2021/09/07 06:51:49;;;;;;;4.78;3.52;;;;;;;35.65;18.65;102472.12;1713596;83;20908;-88
2021/09/07 06:54:15;;;;;;;4.12;2.65;;;;;;;35.19;18.15;102473.84;1714300;83;21408;-90
2021/09/07 06:56:41;;;;;;;3.92;3.08;;;;;;;34.04;18.43;102479.91;1713810;83;21018;-90
2021/09/07 06:59:06;;;;;;;3.72;2.90;;;;;;;32.87;19.07;102484.90;1642471;86;21118;-88
2021/09/07 07:01:32;;;;;;;3.17;2.58;;;;;;;32.05;20.40;102478.27;1641647;86;21003;-90
2021/09/07 07:03:58;;;;;;;2.65;2.37;;;;;;;31.83;19.93;102475.52;1624057;88;20885;-86
2021/09/07 07:06:24;;;;;;;2.70;2.40;;;;;;;31.39;20.46;102481.16;1622772;88;21020;-88
2021/09/07 07:08:50;;;;;;;4.45;2.47;;;;;;;32.49;22.02;102476.71;1621800;88;21015;-89
2021/09/07 07:11:16;;;;;;;4.20;2.45;;;;;;;34.11;19.95;102475.81;1623868;87;21083;-90
2021/09/07 07:13:42;;;;;;;2.92;2.30;;;;;;;34.64;18.83;102479.17;1623729;88;21028;-92
2021/09/07 07:16:08;;;;;;;2.87;2.27;;;;;;;34.42;18.29;102478.66;1623767;88;20995;-92
2021/09/07 07:18:34;;;;;;;3.72;2.20;;;;;;;34.33;19.03;102482.55;1623934;88;21618;-93
2021/09/07 07:21:00;;;;;;;2.65;2.45;;;;;;;34.36;18.75;102471.19;1623954;88;20929;-90
2021/09/07 07:23:26;;;;;;;2.80;2.60;;;;;;;35.50;18.95;102470.33;1623979;88;21159;-92
2021/09/07 07:25:51;;;;;;;2.70;2.40;;;;;;;36.52;17.61;102467.91;1623827;88;21078;-92
2021/09/07 07:28:17;;;;;;;2.70;2.50;;;;;;;36.45;17.82;102466.46;1623765;88;20897;-90
2021/09/07 07:30:43;;;;;;;2.77;2.50;;;;;;;36.69;18.02;102473.41;1663723;85;21038;-90
2021/09/07 07:33:10;;;;;;;5.05;2.60;;;;;;;37.15;17.43;102469.95;1679617;85;20968;-91
2021/09/07 07:35:36;;;;;;;3.33;2.87;;;;;;;37.03;15.96;102469.72;1679185;84;21185;-91
2021/09/07 07:38:02;;;;;;;3.50;2.80;;;;;;;35.34;16.48;102475.40;1679379;85;20988;-86
2021/09/07 07:40:31;;;;;;;2.85;2.55;;;;;;;34.76;17.69;102471.92;1679690;85;20995;-92
2021/09/07 07:42:57;;;;;;;4.03;2.47;;;;;;;34.63;16.84;102473.97;1679481;84;21003;-93
2021/09/07 07:45:23;;;;;;;4.05;2.75;;;;;;;34.33;17.56;102467.14;1679384;84;21050;-92
2021/09/07 07:47:49;;;;;;;2.20;2.10;;;;;;;34.65;17.39;102478.01;1679560;84;21038;-92
2021/09/07 07:50:15;;;;;;;2.62;2.25;;;;;;;34.38;16.86;102477.19;1679808;84;20910;-92
2021/09/07 07:52:40;;;;;;;7.72;2.30;;;;;;;34.63;17.42;102472.57;1679314;84;20852;-92
2021/09/07 07:55:07;;;;;;;2.20;2.00;;;;;;;34.36;16.75;102470.59;1679586;85;20893;-91
2021/09/07 07:57:33;;;;;;;2.50;2.30;;;;;;;33.51;18.02;102474.77;1679653;85;21457;-91
2021/09/07 07:59:59;;;;;;;2.15;2.05;;;;;;;33.42;17.56;102476.41;1679282;85;21111;-91
2021/09/07 08:02:24;;;;;;;2.10;1.90;;;;;;;34.15;17.11;102475.86;1688129;83;20904;-92
2021/09/07 08:04:51;;;;;;;2.33;2.02;;;;;;;33.85;17.42;102472.97;1714370;83;20955;-91
2021/09/07 08:07:17;;;;;;;3.00;2.25;;;;;;;34.72;17.45;102480.89;1713765;83;21503;-86
2021/09/07 08:09:44;;;;;;;5.00;2.00;;;;;;;34.84;16.67;102477.63;1713576;83;21007;-90
2021/09/07 08:12:10;;;;;;;2.60;2.40;;;;;;;34.77;16.91;102480.56;1713628;83;21083;-89
2021/09/07 08:14:36;;;;;;;2.47;2.27;;;;;;;34.58;16.44;102477.30;1714009;83;21063;-88
2021/09/07 08:17:02;;;;;;;3.83;2.30;;;;;;;35.47;16.72;102468.30;1637702;86;21183;-88
2021/09/07 08:19:28;;;;;;;2.58;2.20;;;;;;;36.68;16.42;102472.61;1636214;86;21571;-87
2021/09/07 08:21:54;;;;;;;2.60;2.40;;;;;;;37.17;15.23;102469.75;1637836;86;21651;-88
2021/09/07 08:24:20;;;;;;;2.55;2.35;;;;;;;36.31;15.26;102465.78;1637604;86;21082;-85
2021/09/07 08:26:46;;;;;;;3.77;2.08;;;;;;;36.24;15.88;102467.95;1637448;85;21618;-87
2021/09/07 08:29:12;;;;;;;2.65;2.02;;;;;;;36.55;15.37;102467.13;1641131;86;21024;-89
2021/09/07 08:31:37;;;;;;;4.75;2.17;;;;;;;36.53;15.58;102468.94;1643378;86;21061;-88
2021/09/07 08:34:03;;;;;;;2.33;2.12;;;;;;;36.24;14.98;102462.91;1638873;86;20989;-88
2021/09/07 08:36:30;;;;;;;3.27;2.20;;;;;;;36.22;15.45;102462.52;1640531;84;21017;-89
2021/09/07 08:38:56;;;;;;;2.98;2.35;;;;;;;36.22;15.62;102459.71;1647415;84;21533;-89
2021/09/07 08:41:26;;;;;;;2.72;2.33;;;;;;;36.02;15.22;102455.73;1657095;85;20889;-88
2021/09/07 08:43:53;;;;;;;5.58;2.10;;;;;;;36.31;14.98;102456.75;1678953;85;21208;-90
2021/09/07 08:46:20;;;;;;;2.75;2.20;;;;;;;34.79;15.93;102459.95;1676461;84;20970;-88
2021/09/07 08:48:47;;;;;;;5.62;2.50;;;;;;;34.04;16.17;102458.13;1684250;85;21184;-87
2021/09/07 08:51:18;;;;;;;2.15;1.95;;;;;;;33.85;16.97;102462.58;1689392;85;21016;-88
2021/09/07 08:53:46;;;;;;;4.95;1.90;;;;;;;34.48;16.03;102455.55;1689520;84;21194;-88
2021/09/07 08:56:13;;;;;;;2.92;2.30;;;;;;;34.55;16.60;102455.66;1688241;85;21083;-88
2021/09/07 08:58:39;;;;;;;3.30;2.27;;;;;;;34.40;16.13;102456.63;1689509;85;21081;-89
2021/09/07 09:01:17;;;;;;;3.20;2.20;;;;;;;34.61;16.32;102458.94;1697839;83;21019;-90
2021/09/07 09:03:46;;;;;;;1.85;1.70;;;;;;;35.11;16.78;102462.34;1711655;82;21488;-89
2021/09/07 09:06:15;;;;;;;2.10;1.90;;;;;;;35.37;16.43;102462.80;1714187;83;21510;-91
2021/09/07 09:08:43;;;;;;;2.42;1.90;;;;;;;34.96;16.56;102450.75;1710822;83;21007;-89
2021/09/07 09:11:13;;;;;;;2.00;1.80;;;;;;;34.91;16.50;102456.69;1714029;83;21030;-92
2021/09/07 09:13:48;;;;;;;2.42;1.80;;;;;;;34.46;16.29;102451.51;1713911;82;21184;-93
2021/09/07 09:16:17;;;;;;;2.92;1.98;;;;;;;33.67;16.02;102450.30;1714718;83;20995;-91
2021/09/07 09:18:46;;;;;;;2.85;2.00;;;;;;;32.12;17.07;102457.52;1714398;83;21051;-91
2021/09/07 09:21:32;;;;;;;2.50;1.65;;;;;;;31.44;17.35;102453.59;1714187;83;21000;-91
2021/09/07 09:24:20;;;;;;;2.95;1.60;;;;;;;31.13;18.16;102444.59;1714023;83;21070;-88
2021/09/07 09:27:04;;;;;;;1.80;1.42;;;;;;;31.20;18.65;102446.97;1714183;82;21361;-94
2021/09/07 09:29:36;;;;;;;2.33;1.50;;;;;;;31.98;18.75;102448.81;1714088;82;20996;-94
2021/09/07 09:34:42;;;;;;;1.62;1.27;;;;;;;32.63;17.53;102444.70;1645248;86;21519;-93
2021/09/07 09:37:13;;;;;;;1.85;1.30;;;;;;;31.96;17.41;102438.59;1652482;86;21590;-93
2021/09/07 09:39:53;;;;;;;2.72;1.40;;;;;;;31.05;18.21;102442.77;1652962;86;21263;-93
2021/09/07 09:42:29;;;;;;;3.58;1.37;;;;;;;29.67;18.90;102450.02;1652620;86;21066;-92
2021/09/07 09:45:06;;;;;;;2.90;1.70;;;;;;;27.76;20.09;102445.89;1652591;86;21148;-93
2021/09/07 09:47:43;;;;;;;2.95;1.70;;;;;;;27.66;21.14;102448.46;1652924;86;21468;-93
2021/09/07 09:50:13;;;;;;;3.27;1.47;;;;;;;27.95;21.34;102445.53;1652649;86;21622;-93
2021/09/07 09:52:42;;;;;;;7.60;1.67;;;;;;;27.51;21.92;102438.73;1628319;88;21126;-91
2021/09/07 09:55:12;;;;;;;3.37;1.75;;;;;;;28.22;21.93;102447.81;1592061;89;21071;-91
2021/09/07 09:57:39;;;;;;;2.72;1.30;;;;;;;28.55;21.34;102443.55;1574216;89;20996;-91
2021/09/07 10:00:09;;;;;;;2.25;1.35;;;;;;;28.96;21.26;102433.80;1570549;91;21067;-90
2021/09/07 10:02:35;;;;;;;3.75;1.37;;;;;;;29.09;21.43;102438.88;1572480;90;21245;-91
2021/09/07 10:05:04;;;;;;;4.22;1.37;;;;;;;29.30;21.46;102439.41;1628038;87;21632;-92
2021/09/07 10:07:30;;;;;;;2.75;1.47;;;;;;;29.45;21.32;102440.13;1596987;89;21023;-90
2021/09/07 10:09:57;;;;;;;2.70;1.37;;;;;;;29.47;21.33;102441.16;1628888;87;21017;-92
2021/09/07 10:12:28;;;;;;;3.10;1.40;;;;;;;29.48;21.39;102437.24;1596933;89;21535;-95
2021/09/07 10:15:02;;;;;;;7.03;1.40;;;;;;;29.47;21.06;102435.59;1628530;87;21668;-92
2021/09/07 10:25:59;;;;;;;3.45;1.32;;;;;;;27.86;21.71;102437.25;1628112;87;21100;-91
2021/09/07 10:28:45;;;;;;;6.12;1.40;;;;;;;26.86;22.69;102439.80;1580232;90;21112;-90
2021/09/07 10:31:19;;;;;;;2.72;1.22;;;;;;;25.89;23.29;102445.45;1591539;89;21113;-94
2021/09/07 10:33:53;;;;;;;9.43;1.40;;;;;;;24.89;23.83;102437.72;1613593;89;21141;-93
2021/09/07 10:36:23;;;;;;;4.30;1.20;;;;;;;24.62;24.95;102437.80;1556142;90;21086;-94
2021/09/07 10:38:52;;;;;;;2.50;1.37;;;;;;;24.51;25.26;102434.47;1554582;92;21102;-95
2021/09/07 10:42:20;;;;;;;1.47;1.07;;;;;;;24.45;25.05;102435.70;1554825;92;21085;-93
2021/09/07 10:45:02;;;;;;;2.35;1.27;;;;;;;24.38;24.97;102433.31;1554851;92;21242;-94
2021/09/07 10:47:43;;;;;;;5.72;1.40;;;;;;;24.53;24.73;102429.47;1535160;92;21138;-95
2021/09/07 10:50:10;;;;;;;2.90;1.55;;;;;;;24.54;25.21;102433.84;1571740;90;21101;-94
2021/09/07 10:56:27;;;;;;;1.95;1.10;;;;;;;24.24;25.85;102430.60;1577591;91;21146;-95
2021/09/07 10:58:53;;;;;;;2.75;1.32;;;;;;;24.80;25.36;102425.81;1577331;91;21124;-94
2021/09/07 11:01:28;;;;;;;2.75;1.22;;;;;;;25.10;25.36;102426.19;1576864;91;21703;-91
2021/09/07 11:04:32;;;;;;;3.42;1.42;;;;;;;25.14;24.74;102428.59;1576796;89;21063;-92
2021/09/07 11:07:01;;;;;;;2.40;1.27;;;;;;;24.99;24.48;102435.27;1576995;90;21060;-92
2021/09/07 11:09:52;;;;;;;2.37;1.15;;;;;;;24.62;25.23;102425.38;1527933;92;21539;-93
2021/09/07 11:12:31;;;;;;;2.75;1.32;;;;;;;24.65;25.58;102423.41;1547738;92;21142;-91
2021/09/07 11:15:08;;;;;;;2.70;1.15;;;;;;;24.84;24.53;102420.48;1529908;92;21071;-91
2021/09/07 11:17:35;;;;;;;2.83;1.27;;;;;;;25.23;25.46;102409.33;1529609;93;21095;-92
2021/09/07 11:20:06;;;;;;;2.75;1.40;;;;;;;25.23;24.54;102412.91;1529343;93;21144;-92
2021/09/07 11:22:35;;;;;;;3.05;1.30;;;;;;;25.11;24.92;102418.16;1531111;92;21104;-92
2021/09/07 11:25:09;;;;;;;5.05;1.52;;;;;;;25.20;25.27;102416.86;1598862;89;21660;-93
2021/09/07 11:27:58;;;;;;;2.50;1.10;;;;;;;25.30;25.45;102421.57;1532148;93;21098;-91
2021/09/07 11:30:35;;;;;;;3.72;1.17;;;;;;;25.50;25.07;102412.48;1532490;93;21094;-95
2021/09/07 11:33:11;;;;;;;6.28;1.50;;;;;;;25.80;25.11;102408.09;1551116;90;21014;-94
2021/09/07 11:35:54;;;;;;;1.85;1.10;;;;;;;26.02;25.11;102398.91;1574026;91;21126;-94
2021/09/07 11:38:36;;;;;;;4.30;2.37;;;;;;;25.95;24.17;102398.58;1573323;91;21126;-93
2021/09/07 11:41:08;;;;;;;3.50;1.30;;;;;;;24.85;24.10;102400.84;1541808;92;21139;-91
2021/09/07 11:43:40;;;;;;;2.50;1.27;;;;;;;24.61;25.15;102398.95;1499405;95;22361;-93
2021/09/07 11:46:19;;;;;;;2.98;1.27;;;;;;;24.47;25.27;102395.69;1498924;95;21191;-95
2021/09/07 11:48:54;;;;;;;3.72;1.45;;;;;;;24.75;25.98;102394.20;1438659;99;21663;-91
2021/09/07 11:51:29;;;;;;;2.80;0.95;;;;;;;24.93;25.05;102394.58;1439436;98;21147;-89
2021/09/07 11:54:02;;;;;;;2.50;1.50;;;;;;;24.66;25.21;102399.65;1438894;99;21115;-87
2021/09/07 11:56:30;;;;;;;2.85;1.30;;;;;;;24.40;26.17;102395.25;1439244;98;21131;-93
2021/09/07 11:59:14;;;;;;;4.55;1.30;;;;;;;24.58;26.62;102395.44;1438545;99;21073;-90
2021/09/07 12:01:44;;;;;;;3.00;1.47;;;;;;;24.72;25.92;102394.83;1438735;99;21572;-92
2021/09/07 12:04:15;;;;;;;3.33;1.52;;;;;;;24.66;25.75;102391.95;1438364;99;21384;-90
2021/09/07 12:06:53;;;;;;;4.92;1.50;;;;;;;24.78;25.69;102385.87;1441237;97;21719;-90
2021/09/07 12:09:29;;;;;;;4.25;1.40;;;;;;;24.55;25.04;102385.03;1442902;99;21603;-88
2021/09/07 12:12:06;;;;;;;5.40;1.60;;;;;;;24.42;24.86;102375.13;1444478;98;21212;-89
2021/09/07 12:14:43;;;;;;;4.08;1.87;;;;;;;24.38;25.75;102375.44;1444660;98;21110;-90
2021/09/07 12:17:15;;;;;;;2.58;1.40;;;;;;;24.58;26.41;102375.58;1443776;99;21269;-90
2021/09/07 12:19:49;;;;;;;3.33;1.60;;;;;;;24.91;25.82;102372.58;1444056;99;21179;-90
2021/09/07 12:22:30;;;;;;;3.27;1.35;;;;;;;25.16;25.74;102368.40;1428231;99;21634;-91
2021/09/07 12:25:17;;;;;;;2.58;1.10;;;;;;;25.30;25.30;102368.32;1462025;97;21107;-92
2021/09/07 12:27:57;;;;;;;2.02;1.20;;;;;;;25.29;24.88;102366.09;1467356;97;21123;-91
2021/09/07 12:30:33;;;;;;;3.30;1.40;;;;;;;25.04;25.26;102366.76;1452774;94;22338;-86
2021/09/07 12:33:02;;;;;;;3.12;1.30;;;;;;;24.41;25.24;102368.50;1509801;94;21126;-91
2021/09/07 12:35:57;;;;;;;2.33;1.40;;;;;;;23.79;25.39;102364.30;1509909;94;21163;-90
2021/09/07 12:38:26;;;;;;;6.22;1.30;;;;;;;23.51;25.69;102360.71;1497197;93;21120;-92
2021/09/07 12:40:56;;;;;;;2.67;1.30;;;;;;;23.40;26.19;102353.76;1514660;93;21097;-92
2021/09/07 12:43:25;;;;;;;5.50;1.40;;;;;;;23.27;26.88;102360.88;1528002;93;21361;-88
2021/09/07 12:46:05;;;;;;;4.30;1.50;;;;;;;23.37;26.83;102356.31;1616918;85;21027;-91
2021/09/07 12:48:33;;;;;;;3.40;1.55;;;;;;;23.34;26.01;102350.28;1625114;88;21046;-89
2021/09/07 12:51:01;;;;;;;4.17;1.47;;;;;;;23.02;27.83;102345.63;1625122;88;21088;-86
2021/09/07 12:53:29;;;;;;;9.73;1.52;;;;;;;23.13;26.88;102351.22;1625365;87;21643;-89
2021/09/07 12:55:55;;;;;;;3.15;1.35;;;;;;;22.97;27.20;102344.37;1625065;88;21909;-91
2021/09/07 12:58:21;;;;;;;2.90;0.95;;;;;;;22.77;27.01;102340.55;1625270;87;21120;-90
2021/09/07 13:00:48;;;;;;;4.00;1.40;;;;;;;22.51;27.84;102339.56;1624276;88;21371;-89
2021/09/07 13:03:14;;;;;;;5.00;1.50;;;;;;;22.50;27.17;102337.95;1621713;87;21087;-89
2021/09/07 13:05:42;;;;;;;5.97;1.77;;;;;;;22.26;27.54;102338.55;1606942;87;21050;-88
2021/09/07 13:08:10;;;;;;;3.12;1.15;;;;;;;22.17;27.76;102337.84;1606888;87;21671;-88
2021/09/07 13:10:36;;;;;;;2.65;1.30;;;;;;;22.31;27.85;102331.63;1607558;87;21030;-87
2021/09/07 13:13:03;;;;;;;1.87;1.20;;;;;;;22.14;27.45;102331.53;1609721;87;22065;-88
2021/09/07 13:15:29;;;;;;;2.62;1.07;;;;;;;22.12;27.62;102324.17;1606031;87;21613;-88
2021/09/07 13:17:55;;;;;;;3.67;1.00;;;;;;;21.99;27.32;102325.70;1609702;86;21581;-89
2021/09/07 13:20:21;;;;;;;1.92;1.15;;;;;;;21.85;27.84;102323.97;1671628;85;21151;-88
2021/09/07 13:22:47;;;;;;;2.87;1.37;;;;;;;21.70;28.85;102331.27;1640442;85;21125;-87
2021/09/07 13:25:13;;;;;;;2.55;1.40;;;;;;;21.64;28.45;102330.26;1684124;85;21023;-88
2021/09/07 13:27:39;;;;;;;4.55;1.57;;;;;;;21.67;28.75;102326.93;1682717;85;21050;-87
2021/09/07 13:30:07;;;;;;;4.33;1.20;;;;;;;21.72;28.86;102326.31;1665276;83;21098;-87
2021/09/07 13:32:33;;;;;;;2.72;1.22;;;;;;;21.47;28.21;102324.70;1685023;85;22012;-86
2021/09/07 13:34:59;;;;;;;4.40;1.40;;;;;;;21.20;29.12;102325.76;1684399;85;21522;-88
2021/09/07 13:37:25;;;;;;;4.78;1.52;;;;;;;20.97;28.47;102332.30;1689986;83;20920;-88
2021/09/07 13:39:51;;;;;;;3.20;1.70;;;;;;;20.98;28.89;102320.77;1712114;83;21407;-87
2021/09/07 13:42:20;;;;;;;3.37;1.50;;;;;;;21.03;28.52;102322.07;1712079;83;22462;-87
2021/09/07 13:44:44;;;;;;;4.17;1.60;;;;;;;21.09;29.07;102323.12;1711494;83;21028;-88
2021/09/07 13:47:10;;;;;;;4.25;1.60;;;;;;;21.09;29.37;102321.76;1711904;83;21740;-87
2021/09/07 13:49:36;;;;;;;2.90;1.50;;;;;;;20.85;29.37;102324.45;1710990;83;20911;-87